sensor_id;sensor_type;location;lat;lon;timestamp;temperature;humidity
26051;DHT22;13825;53.496;10.020;2024-02-14T00:00:18;4.40;35.80
26051;DHT22;13825;53.496;10.020;2024-02-14T00:02:46;4.40;58.30
26051;DHT22;13825;53.496;10.020;2024-02-14T00:05:14;4.40;46.70
26051;DHT22;13825;53.496;10.020;2024-02-14T00:07:42;4.40;38.60
26051;DHT22;13825;53.496;10.020;2024-02-14T00:10:09;4.50;25.70
26051;DHT22;13825;53.496;10.020;2024-02-14T00:12:36;4.50;27.60
26051;DHT22;13825;53.496;10.020;2024-02-14T00:15:03;4.40;22.60
26051;DHT22;13825;53.496;10.020;2024-02-14T00:17:31;4.50;24.00
26051;DHT22;13825;53.496;10.020;2024-02-14T00:19:59;4.60;19.90
26051;DHT22;13825;53.496;10.020;2024-02-14T00:22:26;4.40;15.50
26051;DHT22;13825;53.496;10.020;2024-02-14T00:24:54;4.50;12.90
26051;DHT22;13825;53.496;10.020;2024-02-14T00:27:21;4.50;10.30
26051;DHT22;13825;53.496;10.020;2024-02-14T00:29:47;4.40;7.70
26051;DHT22;13825;53.496;10.020;2024-02-14T00:32:14;4.60;10.20
26051;DHT22;13825;53.496;10.020;2024-02-14T00:34:41;4.60;12.90
26051;DHT22;13825;53.496;10.020;2024-02-14T00:37:08;4.80;8.90
26051;DHT22;13825;53.496;10.020;2024-02-14T00:39:36;4.60;9.10
26051;DHT22;13825;53.496;10.020;2024-02-14T00:42:04;4.90;2.70
26051;DHT22;13825;53.496;10.020;2024-02-14T00:44:31;4.70;1.60
26051;DHT22;13825;53.496;10.020;2024-02-14T00:46:58;4.80;1.00
26051;DHT22;13825;53.496;10.020;2024-02-14T00:49:26;4.60;1.00
26051;DHT22;13825;53.496;10.020;2024-02-14T00:51:53;4.80;1.00
26051;DHT22;13825;53.496;10.020;2024-02-14T00:54:20;4.70;1.00
26051;DHT22;13825;53.496;10.020;2024-02-14T00:56:47;4.70;1.00
26051;DHT22;13825;53.496;10.020;2024-02-14T00:59:16;4.80;1.00
26051;DHT22;13825;53.496;10.020;2024-02-14T01:01:43;4.90;1.00
26051;DHT22;13825;53.496;10.020;2024-02-14T01:04:10;4.80;1.00
26051;DHT22;13825;53.496;10.020;2024-02-14T01:06:36;4.80;1.00
26051;DHT22;13825;53.496;10.020;2024-02-14T01:09:03;4.80;1.00
26051;DHT22;13825;53.496;10.020;2024-02-14T01:11:30;5.00;1.00
26051;DHT22;13825;53.496;10.020;2024-02-14T01:13:56;4.90;1.00
26051;DHT22;13825;53.496;10.020;2024-02-14T01:16:25;5.00;1.00
26051;DHT22;13825;53.496;10.020;2024-02-14T01:18:52;4.90;1.00
26051;DHT22;13825;53.496;10.020;2024-02-14T01:21:23;5.00;1.00
26051;DHT22;13825;53.496;10.020;2024-02-14T01:23:50;5.00;1.00
26051;DHT22;13825;53.496;10.020;2024-02-14T01:26:17;5.00;1.00
26051;DHT22;13825;53.496;10.020;2024-02-14T01:28:47;4.90;1.00
26051;DHT22;13825;53.496;10.020;2024-02-14T01:31:14;4.90;1.00
26051;DHT22;13825;53.496;10.020;2024-02-14T01:33:42;5.10;1.00
26051;DHT22;13825;53.496;10.020;2024-02-14T01:36:09;5.00;5.30
26051;DHT22;13825;53.496;10.020;2024-02-14T01:38:35;5.00;8.70
26051;DHT22;13825;53.496;10.020;2024-02-14T01:41:02;4.90;9.60
26051;DHT22;13825;53.496;10.020;2024-02-14T01:43:29;4.90;18.00
26051;DHT22;13825;53.496;10.020;2024-02-14T01:45:57;5.10;18.40
26051;DHT22;13825;53.496;10.020;2024-02-14T01:48:28;4.90;28.00
26051;DHT22;13825;53.496;10.020;2024-02-14T01:50:57;4.80;56.00
26051;DHT22;13825;53.496;10.020;2024-02-14T01:53:24;4.80;80.40
26051;DHT22;13825;53.496;10.020;2024-02-14T01:55:51;4.90;92.50
26051;DHT22;13825;53.496;10.020;2024-02-14T01:58:17;4.90;92.30
26051;DHT22;13825;53.496;10.020;2024-02-14T02:00:44;4.90;98.10
26051;DHT22;13825;53.496;10.020;2024-02-14T02:03:12;4.90;99.90
26051;DHT22;13825;53.496;10.020;2024-02-14T02:05:40;4.90;99.90
26051;DHT22;13825;53.496;10.020;2024-02-14T02:08:09;4.90;99.90
26051;DHT22;13825;53.496;10.020;2024-02-14T02:10:36;4.80;99.90
26051;DHT22;13825;53.496;10.020;2024-02-14T02:13:03;4.90;99.90
26051;DHT22;13825;53.496;10.020;2024-02-14T02:15:29;4.80;99.90
26051;DHT22;13825;53.496;10.020;2024-02-14T02:17:56;4.80;99.90
26051;DHT22;13825;53.496;10.020;2024-02-14T02:20:27;4.80;99.90
26051;DHT22;13825;53.496;10.020;2024-02-14T02:22:55;4.90;99.90
26051;DHT22;13825;53.496;10.020;2024-02-14T02:25:22;4.80;99.90
26051;DHT22;13825;53.496;10.020;2024-02-14T02:27:50;4.80;99.90
26051;DHT22;13825;53.496;10.020;2024-02-14T02:30:17;4.80;99.90
26051;DHT22;13825;53.496;10.020;2024-02-14T02:32:44;4.70;99.90
26051;DHT22;13825;53.496;10.020;2024-02-14T02:35:11;4.70;99.90
26051;DHT22;13825;53.496;10.020;2024-02-14T02:37:37;4.80;99.90
26051;DHT22;13825;53.496;10.020;2024-02-14T02:40:06;4.90;99.90
26051;DHT22;13825;53.496;10.020;2024-02-14T02:42:35;4.70;99.90
26051;DHT22;13825;53.496;10.020;2024-02-14T02:45:02;4.70;99.90
26051;DHT22;13825;53.496;10.020;2024-02-14T02:47:30;4.70;99.90
26051;DHT22;13825;53.496;10.020;2024-02-14T02:49:57;4.90;99.90
26051;DHT22;13825;53.496;10.020;2024-02-14T02:52:26;4.70;99.90
26051;DHT22;13825;53.496;10.020;2024-02-14T02:54:53;4.70;99.90
26051;DHT22;13825;53.496;10.020;2024-02-14T02:57:21;4.70;99.90
26051;DHT22;13825;53.496;10.020;2024-02-14T02:59:48;4.80;99.90
26051;DHT22;13825;53.496;10.020;2024-02-14T03:02:15;4.70;99.90
26051;DHT22;13825;53.496;10.020;2024-02-14T03:04:42;4.80;99.90
26051;DHT22;13825;53.496;10.020;2024-02-14T03:07:09;4.80;99.90
26051;DHT22;13825;53.496;10.020;2024-02-14T03:09:35;5.00;99.90
26051;DHT22;13825;53.496;10.020;2024-02-14T03:12:02;5.00;99.90
26051;DHT22;13825;53.496;10.020;2024-02-14T03:14:31;4.90;99.90
26051;DHT22;13825;53.496;10.020;2024-02-14T03:17:01;4.90;99.90
26051;DHT22;13825;53.496;10.020;2024-02-14T03:19:28;4.90;99.90
26051;DHT22;13825;53.496;10.020;2024-02-14T03:21:55;4.90;99.90
26051;DHT22;13825;53.496;10.020;2024-02-14T03:24:22;4.90;99.90
26051;DHT22;13825;53.496;10.020;2024-02-14T03:26:50;5.10;99.90
26051;DHT22;13825;53.496;10.020;2024-02-14T03:29:19;5.30;99.90
26051;DHT22;13825;53.496;10.020;2024-02-14T03:31:47;5.10;99.90
26051;DHT22;13825;53.496;10.020;2024-02-14T03:34:15;5.10;99.90
26051;DHT22;13825;53.496;10.020;2024-02-14T03:36:41;5.10;99.90
26051;DHT22;13825;53.496;10.020;2024-02-14T03:39:08;5.30;99.90
26051;DHT22;13825;53.496;10.020;2024-02-14T03:41:36;5.10;99.90
26051;DHT22;13825;53.496;10.020;2024-02-14T03:44:04;5.10;99.90
26051;DHT22;13825;53.496;10.020;2024-02-14T03:46:34;5.10;99.90
26051;DHT22;13825;53.496;10.020;2024-02-14T03:49:03;5.00;99.90
26051;DHT22;13825;53.496;10.020;2024-02-14T03:51:29;5.10;99.90
26051;DHT22;13825;53.496;10.020;2024-02-14T03:53:56;5.10;99.90
26051;DHT22;13825;53.496;10.020;2024-02-14T03:56:23;5.00;99.90
26051;DHT22;13825;53.496;10.020;2024-02-14T03:58:51;5.10;99.90
26051;DHT22;13825;53.496;10.020;2024-02-14T04:01:18;5.10;99.90
26051;DHT22;13825;53.496;10.020;2024-02-14T04:03:45;5.10;99.90
26051;DHT22;13825;53.496;10.020;2024-02-14T04:06:14;5.10;99.90
26051;DHT22;13825;53.496;10.020;2024-02-14T04:08:40;5.10;99.90
26051;DHT22;13825;53.496;10.020;2024-02-14T04:11:07;5.10;99.90
26051;DHT22;13825;53.496;10.020;2024-02-14T04:13:34;5.10;99.90
26051;DHT22;13825;53.496;10.020;2024-02-14T04:16:01;5.20;99.90
26051;DHT22;13825;53.496;10.020;2024-02-14T04:18:27;5.00;99.90
26051;DHT22;13825;53.496;10.020;2024-02-14T04:20:54;4.80;99.90
26051;DHT22;13825;53.496;10.020;2024-02-14T04:23:23;5.00;99.90
26051;DHT22;13825;53.496;10.020;2024-02-14T04:25:50;4.80;1.00
26051;DHT22;13825;53.496;10.020;2024-02-14T04:28:17;4.90;1.00
26051;DHT22;13825;53.496;10.020;2024-02-14T04:30:44;5.20;1.00
26051;DHT22;13825;53.496;10.020;2024-02-14T04:33:11;5.00;1.00
26051;DHT22;13825;53.496;10.020;2024-02-14T04:35:39;5.00;1.00
26051;DHT22;13825;53.496;10.020;2024-02-14T04:38:06;4.90;1.00
26051;DHT22;13825;53.496;10.020;2024-02-14T04:40:35;5.00;1.00
26051;DHT22;13825;53.496;10.020;2024-02-14T04:43:03;5.00;1.00
26051;DHT22;13825;53.496;10.020;2024-02-14T04:45:29;5.00;1.00
26051;DHT22;13825;53.496;10.020;2024-02-14T04:47:56;4.90;1.00
26051;DHT22;13825;53.496;10.020;2024-02-14T04:50:23;4.80;1.00
26051;DHT22;13825;53.496;10.020;2024-02-14T04:52:50;4.80;1.00
26051;DHT22;13825;53.496;10.020;2024-02-14T04:55:17;4.80;1.00
26051;DHT22;13825;53.496;10.020;2024-02-14T04:57:45;4.80;23.00
26051;DHT22;13825;53.496;10.020;2024-02-14T05:00:12;4.90;72.40
26051;DHT22;13825;53.496;10.020;2024-02-14T05:02:39;5.00;23.00
26051;DHT22;13825;53.496;10.020;2024-02-14T05:05:08;5.00;1.00
26051;DHT22;13825;53.496;10.020;2024-02-14T05:07:37;5.00;1.00
26051;DHT22;13825;53.496;10.020;2024-02-14T05:10:04;4.90;1.00
26051;DHT22;13825;53.496;10.020;2024-02-14T05:12:32;5.00;1.00
26051;DHT22;13825;53.496;10.020;2024-02-14T05:15:00;5.00;1.00
26051;DHT22;13825;53.496;10.020;2024-02-14T05:17:29;4.90;10.30
26051;DHT22;13825;53.496;10.020;2024-02-14T05:19:56;5.10;8.30
26051;DHT22;13825;53.496;10.020;2024-02-14T05:22:23;4.90;12.70
26051;DHT22;13825;53.496;10.020;2024-02-14T05:24:50;5.30;84.30
26051;DHT22;13825;53.496;10.020;2024-02-14T05:27:17;5.00;54.50
26051;DHT22;13825;53.496;10.020;2024-02-14T05:29:43;5.00;99.90
26051;DHT22;13825;53.496;10.020;2024-02-14T05:32:11;5.10;96.10
26051;DHT22;13825;53.496;10.020;2024-02-14T05:34:39;5.00;99.90
26051;DHT22;13825;53.496;10.020;2024-02-14T05:37:06;5.00;99.90
26051;DHT22;13825;53.496;10.020;2024-02-14T05:39:33;5.10;99.90
26051;DHT22;13825;53.496;10.020;2024-02-14T05:42:00;5.20;99.90
26051;DHT22;13825;53.496;10.020;2024-02-14T05:44:27;5.20;99.90
26051;DHT22;13825;53.496;10.020;2024-02-14T05:46:55;5.30;99.90
26051;DHT22;13825;53.496;10.020;2024-02-14T05:49:23;5.10;99.90
26051;DHT22;13825;53.496;10.020;2024-02-14T05:51:50;5.20;99.90
26051;DHT22;13825;53.496;10.020;2024-02-14T05:54:18;5.30;99.90
26051;DHT22;13825;53.496;10.020;2024-02-14T05:56:45;5.40;99.90
26051;DHT22;13825;53.496;10.020;2024-02-14T05:59:12;5.30;99.90
26051;DHT22;13825;53.496;10.020;2024-02-14T06:01:39;5.20;99.90
26051;DHT22;13825;53.496;10.020;2024-02-14T06:04:06;5.10;99.90
26051;DHT22;13825;53.496;10.020;2024-02-14T06:06:34;5.10;99.90
26051;DHT22;13825;53.496;10.020;2024-02-14T06:09:01;5.20;99.90
26051;DHT22;13825;53.496;10.020;2024-02-14T06:11:35;5.30;99.90
26051;DHT22;13825;53.496;10.020;2024-02-14T06:14:04;5.40;99.90
26051;DHT22;13825;53.496;10.020;2024-02-14T06:16:31;5.40;99.90
26051;DHT22;13825;53.496;10.020;2024-02-14T06:18:57;5.40;99.90
26051;DHT22;13825;53.496;10.020;2024-02-14T06:21:24;5.60;99.90
26051;DHT22;13825;53.496;10.020;2024-02-14T06:23:53;5.60;99.90
26051;DHT22;13825;53.496;10.020;2024-02-14T06:26:20;5.60;65.60
26051;DHT22;13825;53.496;10.020;2024-02-14T06:28:47;5.40;66.50
26051;DHT22;13825;53.496;10.020;2024-02-14T06:31:17;5.60;30.40
26051;DHT22;13825;53.496;10.020;2024-02-14T06:33:44;5.60;4.50
26051;DHT22;13825;53.496;10.020;2024-02-14T06:36:11;5.50;1.00
26051;DHT22;13825;53.496;10.020;2024-02-14T06:38:37;5.60;63.80
26051;DHT22;13825;53.496;10.020;2024-02-14T06:41:06;5.60;76.30
26051;DHT22;13825;53.496;10.020;2024-02-14T06:43:33;5.50;85.90
26051;DHT22;13825;53.496;10.020;2024-02-14T06:46:01;5.70;88.90
26051;DHT22;13825;53.496;10.020;2024-02-14T06:48:28;5.80;28.70
26051;DHT22;13825;53.496;10.020;2024-02-14T06:50:55;5.70;1.00
26051;DHT22;13825;53.496;10.020;2024-02-14T06:53:21;5.80;1.00
26051;DHT22;13825;53.496;10.020;2024-02-14T06:55:48;5.60;31.90
26051;DHT22;13825;53.496;10.020;2024-02-14T06:58:17;5.60;23.60
26051;DHT22;13825;53.496;10.020;2024-02-14T07:00:44;5.70;60.40
26051;DHT22;13825;53.496;10.020;2024-02-14T07:03:12;5.70;1.00
26051;DHT22;13825;53.496;10.020;2024-02-14T07:05:39;5.50;11.90
26051;DHT22;13825;53.496;10.020;2024-02-14T07:08:07;5.60;99.90
26051;DHT22;13825;53.496;10.020;2024-02-14T07:10:34;5.80;99.90
26051;DHT22;13825;53.496;10.020;2024-02-14T07:13:00;5.80;99.90
26051;DHT22;13825;53.496;10.020;2024-02-14T07:15:30;5.80;99.90
26051;DHT22;13825;53.496;10.020;2024-02-14T07:17:56;5.80;99.90
26051;DHT22;13825;53.496;10.020;2024-02-14T07:20:24;5.80;94.40
26051;DHT22;13825;53.496;10.020;2024-02-14T07:22:52;5.60;99.90
26051;DHT22;13825;53.496;10.020;2024-02-14T07:25:20;5.70;99.90
26051;DHT22;13825;53.496;10.020;2024-02-14T07:27:47;5.80;99.90
26051;DHT22;13825;53.496;10.020;2024-02-14T07:30:15;5.90;99.90
26051;DHT22;13825;53.496;10.020;2024-02-14T07:32:43;5.80;99.90
26051;DHT22;13825;53.496;10.020;2024-02-14T07:35:10;5.80;99.90
26051;DHT22;13825;53.496;10.020;2024-02-14T07:37:38;6.00;99.90
26051;DHT22;13825;53.496;10.020;2024-02-14T07:40:05;6.00;65.30
26051;DHT22;13825;53.496;10.020;2024-02-14T07:42:32;6.00;95.40
26051;DHT22;13825;53.496;10.020;2024-02-14T07:44:59;5.90;99.90
26051;DHT22;13825;53.496;10.020;2024-02-14T07:47:28;5.90;99.90
26051;DHT22;13825;53.496;10.020;2024-02-14T07:49:57;6.00;99.90
26051;DHT22;13825;53.496;10.020;2024-02-14T07:52:24;5.80;27.70
26051;DHT22;13825;53.496;10.020;2024-02-14T07:54:51;5.80;99.90
26051;DHT22;13825;53.496;10.020;2024-02-14T07:57:18;5.90;99.90
26051;DHT22;13825;53.496;10.020;2024-02-14T07:59:45;6.00;99.90
26051;DHT22;13825;53.496;10.020;2024-02-14T08:02:11;6.10;99.90
26051;DHT22;13825;53.496;10.020;2024-02-14T08:04:38;6.20;99.90
26051;DHT22;13825;53.496;10.020;2024-02-14T08:07:06;6.20;99.90
26051;DHT22;13825;53.496;10.020;2024-02-14T08:09:33;6.20;91.20
26051;DHT22;13825;53.496;10.020;2024-02-14T08:12:00;6.00;99.90
26051;DHT22;13825;53.496;10.020;2024-02-14T08:14:26;6.10;99.90
26051;DHT22;13825;53.496;10.020;2024-02-14T08:16:53;6.10;99.90
26051;DHT22;13825;53.496;10.020;2024-02-14T08:19:20;6.30;99.90
26051;DHT22;13825;53.496;10.020;2024-02-14T08:21:47;6.40;99.90
26051;DHT22;13825;53.496;10.020;2024-02-14T08:24:15;6.40;99.90
26051;DHT22;13825;53.496;10.020;2024-02-14T08:26:42;6.40;99.90
26051;DHT22;13825;53.496;10.020;2024-02-14T08:29:09;6.50;99.90
26051;DHT22;13825;53.496;10.020;2024-02-14T08:31:38;6.60;99.90
26051;DHT22;13825;53.496;10.020;2024-02-14T08:34:05;6.50;99.90
26051;DHT22;13825;53.496;10.020;2024-02-14T08:36:34;6.50;99.90
26051;DHT22;13825;53.496;10.020;2024-02-14T08:39:06;6.50;99.90
26051;DHT22;13825;53.496;10.020;2024-02-14T08:41:34;6.60;99.90
26051;DHT22;13825;53.496;10.020;2024-02-14T08:44:00;6.80;99.90
26051;DHT22;13825;53.496;10.020;2024-02-14T08:46:28;6.70;98.90
26051;DHT22;13825;53.496;10.020;2024-02-14T08:48:55;6.70;99.90
26051;DHT22;13825;53.496;10.020;2024-02-14T08:51:21;6.80;99.90
26051;DHT22;13825;53.496;10.020;2024-02-14T08:53:51;6.90;97.80
26051;DHT22;13825;53.496;10.020;2024-02-14T08:56:21;6.90;99.90
26051;DHT22;13825;53.496;10.020;2024-02-14T08:58:49;7.00;56.70
26051;DHT22;13825;53.496;10.020;2024-02-14T09:01:16;6.70;1.00
26051;DHT22;13825;53.496;10.020;2024-02-14T09:03:42;6.80;99.90
26051;DHT22;13825;53.496;10.020;2024-02-14T09:06:12;6.90;99.90
26051;DHT22;13825;53.496;10.020;2024-02-14T09:08:39;7.10;99.90
26051;DHT22;13825;53.496;10.020;2024-02-14T09:11:07;7.10;99.90
26051;DHT22;13825;53.496;10.020;2024-02-14T09:13:34;7.10;99.90
26051;DHT22;13825;53.496;10.020;2024-02-14T09:16:04;7.40;99.90
26051;DHT22;13825;53.496;10.020;2024-02-14T09:18:31;7.30;99.90
26051;DHT22;13825;53.496;10.020;2024-02-14T09:20:58;7.40;99.90
26051;DHT22;13825;53.496;10.020;2024-02-14T09:23:26;7.40;99.90
26051;DHT22;13825;53.496;10.020;2024-02-14T09:25:54;7.50;99.90
26051;DHT22;13825;53.496;10.020;2024-02-14T09:28:22;7.60;65.90
26051;DHT22;13825;53.496;10.020;2024-02-14T09:30:50;7.60;76.40
26051;DHT22;13825;53.496;10.020;2024-02-14T09:33:18;7.80;99.90
26051;DHT22;13825;53.496;10.020;2024-02-14T09:35:45;7.80;1.00
26051;DHT22;13825;53.496;10.020;2024-02-14T09:38:13;7.90;99.90
26051;DHT22;13825;53.496;10.020;2024-02-14T09:40:40;8.10;66.90
26051;DHT22;13825;53.496;10.020;2024-02-14T09:43:11;8.20;23.00
26051;DHT22;13825;53.496;10.020;2024-02-14T09:45:43;8.30;1.00
26051;DHT22;13825;53.496;10.020;2024-02-14T09:48:12;8.30;1.00
26051;DHT22;13825;53.496;10.020;2024-02-14T09:50:42;8.30;1.00
26051;DHT22;13825;53.496;10.020;2024-02-14T09:53:10;8.40;1.00
26051;DHT22;13825;53.496;10.020;2024-02-14T09:55:37;8.50;1.00
26051;DHT22;13825;53.496;10.020;2024-02-14T09:58:05;8.50;1.00
26051;DHT22;13825;53.496;10.020;2024-02-14T10:00:33;8.60;1.00
26051;DHT22;13825;53.496;10.020;2024-02-14T10:09:08;8.80;1.00
26051;DHT22;13825;53.496;10.020;2024-02-14T10:11:36;8.80;1.00
26051;DHT22;13825;53.496;10.020;2024-02-14T10:14:04;8.80;1.00
26051;DHT22;13825;53.496;10.020;2024-02-14T10:16:34;8.70;1.00
26051;DHT22;13825;53.496;10.020;2024-02-14T10:19:03;8.70;1.00
26051;DHT22;13825;53.496;10.020;2024-02-14T10:22:03;8.80;13.80
26051;DHT22;13825;53.496;10.020;2024-02-14T17:07:41;10.50;99.90
26051;DHT22;13825;53.496;10.020;2024-02-14T17:10:22;10.40;99.90
26051;DHT22;13825;53.496;10.020;2024-02-14T17:13:03;10.40;99.90
26051;DHT22;13825;53.496;10.020;2024-02-14T17:31:44;10.40;99.90
26051;DHT22;13825;53.496;10.020;2024-02-14T17:34:35;10.60;99.90
26051;DHT22;13825;53.496;10.020;2024-02-14T17:37:31;10.60;99.90
26051;DHT22;13825;53.496;10.020;2024-02-14T17:40:02;10.30;99.90
26051;DHT22;13825;53.496;10.020;2024-02-14T17:42:36;10.30;99.90
26051;DHT22;13825;53.496;10.020;2024-02-14T17:45:06;10.40;99.90
26051;DHT22;13825;53.496;10.020;2024-02-14T22:50:24;10.80;1.00
26051;DHT22;13825;53.496;10.020;2024-02-14T22:52:54;10.80;1.00
26051;DHT22;13825;53.496;10.020;2024-02-14T22:55:21;10.80;1.00
26051;DHT22;13825;53.496;10.020;2024-02-14T22:57:53;10.90;1.00
26051;DHT22;13825;53.496;10.020;2024-02-14T23:00:21;10.80;1.00
26051;DHT22;13825;53.496;10.020;2024-02-14T23:03:03;10.90;1.00
